createdAt,value
2018-08-22T00:00:37.451Z,15.62
2018-08-22T00:01:43.852Z,15.54
2018-08-22T00:02:51.383Z,15.50
2018-08-22T00:03:58.559Z,15.48
2018-08-22T00:05:05.119Z,15.46
2018-08-22T00:06:11.371Z,15.47
2018-08-22T00:07:17.820Z,15.43
2018-08-22T00:08:23.856Z,15.43
2018-08-22T00:09:30.549Z,15.39
2018-08-22T00:10:38.220Z,15.32
2018-08-22T00:11:44.579Z,15.25
2018-08-22T00:12:51.563Z,15.22
2018-08-22T00:13:57.990Z,15.22
2018-08-22T00:15:04.009Z,15.26
2018-08-22T00:16:10.528Z,15.28
2018-08-22T00:17:16.726Z,15.25
2018-08-22T00:18:23.080Z,15.23
2018-08-22T00:19:29.390Z,15.23
2018-08-22T00:20:35.756Z,15.20
2018-08-22T00:21:41.980Z,15.19
2018-08-22T00:22:48.830Z,15.14
2018-08-22T00:23:55.124Z,15.11
2018-08-22T00:25:01.453Z,15.11
2018-08-22T00:26:07.757Z,15.10
2018-08-22T00:27:14.060Z,15.15
2018-08-22T00:28:20.399Z,15.11
2018-08-22T00:29:26.698Z,15.08
2018-08-22T00:30:33.147Z,15.06
2018-08-22T00:31:39.413Z,15.05
2018-08-22T00:32:45.778Z,15.07
2018-08-22T00:33:52.071Z,15.06
2018-08-22T00:34:58.242Z,15.09
2018-08-22T00:36:11.085Z,15.04
2018-08-22T00:37:18.753Z,15.02
2018-08-22T00:38:25.138Z,15.04
2018-08-22T00:39:31.395Z,15.03
2018-08-22T00:40:37.677Z,15.04
2018-08-22T00:41:43.983Z,15.04
2018-08-22T00:42:52.177Z,15.01
2018-08-22T00:43:59.046Z,14.99
2018-08-22T00:45:05.283Z,15.01
2018-08-22T00:46:11.751Z,15.02
2018-08-22T00:47:23.830Z,14.95
2018-08-22T00:48:30.223Z,14.90
2018-08-22T00:49:36.492Z,14.92
2018-08-22T00:50:42.788Z,14.92
2018-08-22T00:51:49.090Z,14.91
2018-08-22T00:52:55.434Z,14.91
2018-08-22T00:54:01.874Z,14.91
2018-08-22T00:55:08.140Z,14.88
2018-08-22T00:56:14.427Z,14.93
2018-08-22T00:57:20.739Z,14.89
2018-08-22T00:58:27.093Z,14.87
2018-08-22T00:59:33.351Z,14.88
2018-08-22T01:00:39.691Z,14.83
2018-08-22T01:01:45.171Z,14.79
2018-08-22T01:02:51.485Z,14.82
2018-08-22T01:03:58.089Z,14.81
2018-08-22T01:05:04.147Z,14.82
2018-08-22T01:06:10.436Z,14.79
2018-08-22T01:07:16.775Z,14.75
2018-08-22T01:08:23.063Z,14.74
2018-08-22T01:09:29.363Z,14.76
2018-08-22T01:10:35.706Z,14.80
2018-08-22T01:11:42.169Z,14.79
2018-08-22T01:12:48.439Z,14.77
2018-08-22T01:13:54.847Z,14.72
2018-08-22T01:15:01.140Z,14.70
2018-08-22T01:16:07.445Z,14.71
2018-08-22T01:17:13.756Z,14.69
2018-08-22T01:18:20.092Z,14.72
2018-08-22T01:19:26.423Z,14.71
2018-08-22T01:20:32.703Z,14.68
2018-08-22T01:21:39.652Z,14.67
2018-08-22T01:22:46.735Z,14.65
2018-08-22T01:23:52.613Z,14.66
2018-08-22T01:24:58.679Z,14.66
2018-08-22T01:26:04.985Z,14.66
2018-08-22T01:27:11.036Z,14.66
2018-08-22T01:28:17.296Z,14.64
2018-08-22T01:29:23.595Z,14.63
2018-08-22T01:30:29.547Z,14.61
2018-08-22T01:31:35.941Z,14.58
2018-08-22T01:32:42.227Z,14.55
2018-08-22T01:33:53.660Z,14.57
2018-08-22T01:35:03.734Z,14.51
2018-08-22T01:36:09.959Z,14.58
2018-08-22T01:37:16.287Z,14.64
2018-08-22T01:38:22.616Z,14.65
2018-08-22T01:39:29.000Z,14.66
2018-08-22T01:40:35.341Z,14.63
2018-08-22T01:41:41.632Z,14.56
2018-08-22T01:42:47.935Z,14.56
2018-08-22T01:43:54.397Z,14.54
2018-08-22T01:45:00.667Z,14.52
2018-08-22T01:46:06.965Z,14.48
2018-08-22T01:47:13.414Z,14.48
2018-08-22T01:48:19.369Z,14.52
2018-08-22T01:49:25.544Z,14.50
2018-08-22T01:50:31.588Z,14.50
2018-08-22T01:51:37.935Z,14.48
2018-08-22T01:52:44.235Z,14.48
2018-08-22T01:53:50.575Z,14.46
2018-08-22T01:54:56.884Z,14.45
2018-08-22T01:56:03.172Z,14.51
2018-08-22T01:57:09.479Z,14.54
2018-08-22T01:58:15.784Z,14.53
2018-08-22T01:59:22.033Z,14.56
2018-08-22T02:00:28.318Z,14.56
2018-08-22T02:01:34.655Z,14.52
2018-08-22T02:02:40.951Z,14.47
2018-08-22T02:03:47.302Z,14.37
2018-08-22T02:04:53.566Z,14.30
2018-08-22T02:05:59.880Z,14.26
2018-08-22T02:07:06.194Z,14.25
2018-08-22T02:08:12.493Z,14.22
2018-08-22T02:09:18.909Z,14.21
2018-08-22T02:10:25.260Z,14.22
2018-08-22T02:11:31.584Z,14.22
2018-08-22T02:12:43.574Z,14.20
2018-08-22T02:13:50.034Z,14.17
2018-08-22T02:14:56.328Z,14.16
2018-08-22T02:16:02.318Z,14.17
2018-08-22T02:17:08.640Z,14.18
2018-08-22T02:18:14.942Z,14.26
2018-08-22T02:19:21.175Z,14.20
2018-08-22T02:20:27.527Z,14.12
2018-08-22T02:21:39.560Z,14.12
2018-08-22T02:22:49.704Z,14.18
2018-08-22T02:23:56.043Z,14.23
2018-08-22T02:25:02.380Z,14.20
2018-08-22T02:26:08.960Z,14.20
2018-08-22T02:27:15.267Z,14.18
2018-08-22T02:28:21.573Z,14.11
2018-08-22T02:29:27.596Z,14.17
2018-08-22T02:30:33.901Z,14.06
2018-08-22T02:31:40.236Z,14.03
2018-08-22T02:32:46.504Z,14.06
2018-08-22T02:33:52.739Z,14.05
2018-08-22T02:34:59.447Z,14.02
2018-08-22T02:36:06.775Z,13.99
2018-08-22T02:37:13.062Z,13.91
2018-08-22T02:38:19.182Z,13.90
2018-08-22T02:39:25.437Z,13.86
2018-08-22T02:40:31.747Z,13.83
2018-08-22T02:41:37.810Z,13.82
2018-08-22T02:42:44.027Z,13.79
2018-08-22T02:43:50.349Z,13.75
2018-08-22T02:44:56.710Z,13.74
2018-08-22T02:46:02.987Z,13.78
2018-08-22T02:47:09.592Z,13.79
2018-08-22T02:48:15.895Z,13.75
2018-08-22T02:49:22.251Z,13.75
2018-08-22T02:50:28.535Z,13.74
2018-08-22T02:51:34.831Z,13.72
2018-08-22T02:52:41.318Z,13.74
2018-08-22T02:53:47.674Z,13.77
2018-08-22T02:54:53.801Z,13.74
2018-08-22T02:56:00.089Z,13.77
2018-08-22T02:57:06.400Z,13.75
2018-08-22T02:58:13.752Z,13.76
2018-08-22T02:59:20.029Z,13.81
2018-08-22T03:00:26.371Z,13.82
2018-08-22T03:01:32.782Z,13.70
2018-08-22T03:02:39.136Z,13.64
2018-08-22T03:03:45.411Z,13.58
2018-08-22T03:04:51.744Z,13.56
2018-08-22T03:05:57.803Z,13.61
2018-08-22T03:07:04.939Z,13.59
2018-08-22T03:08:22.806Z,13.58
2018-08-22T03:09:34.791Z,13.60
2018-08-22T03:10:42.243Z,13.62
2018-08-22T03:11:48.517Z,13.61
2018-08-22T03:12:54.817Z,13.65
2018-08-22T03:14:01.114Z,13.68
2018-08-22T03:15:07.483Z,13.67
2018-08-22T03:16:13.868Z,13.62
2018-08-22T03:17:20.227Z,13.58
2018-08-22T03:18:26.471Z,13.53
2018-08-22T03:19:32.828Z,13.53
2018-08-22T03:20:39.754Z,13.55
2018-08-22T03:21:46.510Z,13.53
2018-08-22T03:22:52.872Z,13.52
2018-08-22T03:23:59.164Z,13.49
2018-08-22T03:25:05.518Z,13.50
2018-08-22T03:26:11.987Z,13.52
2018-08-22T03:27:19.003Z,13.49
2018-08-22T03:28:25.568Z,13.47
2018-08-22T03:29:31.891Z,13.48
2018-08-22T03:30:38.184Z,13.46
2018-08-22T03:31:44.527Z,13.44
2018-08-22T03:32:50.812Z,13.42
2018-08-22T03:33:57.279Z,13.47
2018-08-22T03:35:03.248Z,13.51
2018-08-22T03:36:09.631Z,13.56
2018-08-22T03:37:16.107Z,13.56
2018-08-22T03:38:22.465Z,13.51
2018-08-22T03:39:28.668Z,13.43
2018-08-22T03:40:35.031Z,13.45
2018-08-22T03:41:41.425Z,13.45
2018-08-22T03:42:47.699Z,13.40
2018-08-22T03:43:54.028Z,13.34
2018-08-22T03:45:00.151Z,13.28
2018-08-22T03:46:06.645Z,13.28
2018-08-22T03:47:13.057Z,13.23
2018-08-22T03:48:19.425Z,13.31
2018-08-22T03:49:25.685Z,13.34
2018-08-22T03:50:32.930Z,13.38
2018-08-22T03:51:40.156Z,13.43
2018-08-22T03:52:49.358Z,13.41
2018-08-22T03:53:55.646Z,13.24
2018-08-22T03:55:01.987Z,13.17
2018-08-22T03:56:12.864Z,13.15
2018-08-22T03:57:19.252Z,13.09
2018-08-22T03:58:26.530Z,13.06
2018-08-22T03:59:33.427Z,13.06
2018-08-22T04:00:42.612Z,13.08
2018-08-22T04:01:48.752Z,13.05
2018-08-22T04:02:55.685Z,13.08
2018-08-22T04:04:01.939Z,13.09
2018-08-22T04:05:08.308Z,13.08
2018-08-22T04:06:14.587Z,13.08
2018-08-22T04:07:20.899Z,13.09
2018-08-22T04:08:27.210Z,13.06
2018-08-22T04:09:33.535Z,13.08
2018-08-22T04:10:39.868Z,13.10
2018-08-22T04:11:47.121Z,13.10
2018-08-22T04:13:00.825Z,13.11
2018-08-22T04:14:19.592Z,13.14
2018-08-22T04:15:38.009Z,13.16
2018-08-22T04:16:52.081Z,13.22
2018-08-22T04:18:09.128Z,13.27
2018-08-22T04:19:22.146Z,13.23
2018-08-22T04:20:41.367Z,13.20
2018-08-22T04:22:02.360Z,13.14
2018-08-22T04:23:21.644Z,13.11
2018-08-22T04:24:39.485Z,13.08
2018-08-22T04:26:01.211Z,13.08
2018-08-22T04:27:19.284Z,13.12
2018-08-22T04:28:33.335Z,13.09
2018-08-22T04:29:54.099Z,13.15
2018-08-22T04:31:08.028Z,13.15
2018-08-22T04:32:33.083Z,13.11
2018-08-22T04:33:51.436Z,13.11
2018-08-22T04:35:10.304Z,13.06
2018-08-22T04:36:44.827Z,12.96
2018-08-22T04:38:11.222Z,12.95
2018-08-22T04:39:30.215Z,12.95
2018-08-22T04:40:41.803Z,13.00
2018-08-22T04:41:59.318Z,13.09
2018-08-22T04:43:17.702Z,13.12
2018-08-22T04:44:28.914Z,13.10
2018-08-22T04:45:41.523Z,13.08
2018-08-22T04:46:53.461Z,13.12
2018-08-22T04:48:04.875Z,13.19
2018-08-22T04:49:14.491Z,13.25
2018-08-22T04:50:25.418Z,13.25
2018-08-22T04:51:36.721Z,13.36
2018-08-22T04:52:48.423Z,13.51
2018-08-22T04:53:59.387Z,13.58
2018-08-22T04:55:08.122Z,13.67
2018-08-22T04:56:14.395Z,13.65
2018-08-22T04:57:20.711Z,13.60
2018-08-22T04:58:27.004Z,13.60
2018-08-22T04:59:33.370Z,13.62
2018-08-22T05:00:39.681Z,13.64
2018-08-22T05:01:46.671Z,13.66
2018-08-22T05:02:53.110Z,13.65
2018-08-22T05:03:59.379Z,13.69
2018-08-22T05:05:05.707Z,13.75
2018-08-22T05:06:12.659Z,13.81
2018-08-22T05:07:19.640Z,13.88
2018-08-22T05:08:25.852Z,13.92
2018-08-22T05:09:32.204Z,13.95
2018-08-22T05:10:38.523Z,14.00
2018-08-22T05:11:44.856Z,14.03
2018-08-22T05:12:51.114Z,14.05
2018-08-22T05:13:57.407Z,14.06
2018-08-22T05:15:03.627Z,14.08
2018-08-22T05:16:11.005Z,14.15
2018-08-22T05:17:18.694Z,14.23
2018-08-22T05:18:25.032Z,14.38
2018-08-22T05:19:31.340Z,14.39
2018-08-22T05:20:38.526Z,14.58
2018-08-22T05:21:45.047Z,14.58
2018-08-22T05:22:53.340Z,14.54
2018-08-22T05:24:00.146Z,14.54
2018-08-22T05:25:10.426Z,14.60
2018-08-22T05:26:17.152Z,14.60
2018-08-22T05:27:24.889Z,14.64
2018-08-22T05:28:40.080Z,14.71
2018-08-22T05:29:57.272Z,14.70
2018-08-22T05:31:09.000Z,14.76
2018-08-22T05:32:15.293Z,14.86
2018-08-22T05:33:21.607Z,14.93
2018-08-22T05:34:32.920Z,14.92
2018-08-22T05:35:39.710Z,15.00
2018-08-22T05:36:46.003Z,14.98
2018-08-22T05:37:53.904Z,15.02
2018-08-22T05:39:01.326Z,15.08
2018-08-22T05:40:07.810Z,15.12
2018-08-22T05:41:14.568Z,15.21
2018-08-22T05:42:21.104Z,15.31
2018-08-22T05:43:27.509Z,15.33
2018-08-22T05:44:34.261Z,15.44
2018-08-22T05:45:40.763Z,15.51
2018-08-22T05:46:47.059Z,15.48
2018-08-22T05:47:53.625Z,15.48
2018-08-22T05:49:00.165Z,15.54
2018-08-22T05:50:06.237Z,15.57
2018-08-22T05:51:12.496Z,15.58
2018-08-22T05:52:18.853Z,15.61
2018-08-22T05:53:25.147Z,15.65
2018-08-22T05:54:31.419Z,15.76
2018-08-22T05:55:37.764Z,15.91
2018-08-22T05:56:44.086Z,16.07
2018-08-22T05:57:50.425Z,16.17
2018-08-22T05:58:56.702Z,16.26
2018-08-22T06:00:03.716Z,16.33
2018-08-22T06:01:10.584Z,16.35
2018-08-22T06:02:17.287Z,16.49
2018-08-22T06:03:23.685Z,16.57
2018-08-22T06:04:30.205Z,16.61
2018-08-22T06:05:36.611Z,16.58
2018-08-22T06:06:43.757Z,16.50
2018-08-22T06:07:50.185Z,16.58
2018-08-22T06:08:56.456Z,16.76
2018-08-22T06:10:02.797Z,16.87
2018-08-22T06:11:09.055Z,16.90
2018-08-22T06:12:15.412Z,16.92
2018-08-22T06:13:21.676Z,16.96
2018-08-22T06:14:27.913Z,16.91
2018-08-22T06:15:34.221Z,16.84
2018-08-22T06:16:40.839Z,16.83
2018-08-22T06:17:46.751Z,16.81
2018-08-22T06:18:52.736Z,16.82
2018-08-22T06:19:59.080Z,16.89
2018-08-22T06:21:05.372Z,16.98
2018-08-22T06:22:11.720Z,17.04
2018-08-22T06:23:17.791Z,17.06
2018-08-22T06:24:24.102Z,17.10
2018-08-22T06:25:30.460Z,17.17
2018-08-22T06:26:42.456Z,17.40
2018-08-22T06:27:48.796Z,17.48
2018-08-22T06:28:55.584Z,17.56
2018-08-22T06:30:01.838Z,17.76
2018-08-22T06:31:08.747Z,17.78
2018-08-22T06:32:15.074Z,17.93
2018-08-22T06:33:21.422Z,18.02
2018-08-22T06:34:27.692Z,18.04
2018-08-22T06:35:33.972Z,18.09
2018-08-22T06:36:40.284Z,18.00
2018-08-22T06:37:46.659Z,17.82
2018-08-22T06:38:53.116Z,17.72
2018-08-22T06:39:59.432Z,17.69
2018-08-22T06:41:05.843Z,17.86
2018-08-22T06:43:17.431Z,18.12
2018-08-22T06:44:23.541Z,18.18
2018-08-22T06:45:29.728Z,18.31
2018-08-22T06:46:36.073Z,18.24
2018-08-22T06:47:42.416Z,18.44
2018-08-22T06:48:48.812Z,18.37
2018-08-22T06:49:55.164Z,18.30
2018-08-22T06:51:01.432Z,18.51
2018-08-22T06:52:07.771Z,18.68
2018-08-22T06:53:14.085Z,18.51
2018-08-22T06:54:20.518Z,18.39
2018-08-22T06:55:26.829Z,18.44
2018-08-22T06:56:33.110Z,18.43
2018-08-22T06:57:39.446Z,18.42
2018-08-22T06:58:45.715Z,18.45
2018-08-22T06:59:52.049Z,18.58
2018-08-22T07:00:58.372Z,18.86
2018-08-22T07:02:04.655Z,18.94
2018-08-22T07:03:11.238Z,18.82
2018-08-22T07:04:17.485Z,18.64
2018-08-22T07:05:23.775Z,18.65
2018-08-22T07:06:30.223Z,18.56
2018-08-22T07:07:36.529Z,18.56
2018-08-22T07:08:42.821Z,18.67
2018-08-22T07:09:50.056Z,18.87
2018-08-22T07:10:56.375Z,19.10
2018-08-22T07:12:02.708Z,19.24
2018-08-22T07:13:09.030Z,19.11
2018-08-22T07:14:15.336Z,19.12
2018-08-22T07:15:21.651Z,19.17
2018-08-22T07:16:28.684Z,19.16
2018-08-22T07:17:35.095Z,19.37
2018-08-22T07:18:46.885Z,19.61
2018-08-22T07:19:53.223Z,19.37
2018-08-22T07:21:00.473Z,19.30
2018-08-22T07:22:07.055Z,19.37
2018-08-22T07:23:13.293Z,19.53
2018-08-22T07:24:19.592Z,19.71
2018-08-22T07:25:25.923Z,19.75
2018-08-22T07:26:32.241Z,19.54
2018-08-22T07:27:38.554Z,19.60
2018-08-22T07:28:44.525Z,19.53
2018-08-22T07:29:50.876Z,19.64
2018-08-22T07:31:05.389Z,19.65
2018-08-22T07:32:11.599Z,19.64
2018-08-22T07:33:17.877Z,19.84
2018-08-22T07:34:23.961Z,19.80
2018-08-22T07:35:30.251Z,19.91
2018-08-22T07:36:36.480Z,19.96
2018-08-22T07:37:42.820Z,20.16
2018-08-22T07:38:56.616Z,20.34
2018-08-22T07:40:03.010Z,20.09
2018-08-22T07:41:09.316Z,20.09
2018-08-22T07:42:15.677Z,19.92
2018-08-22T07:43:24.901Z,20.00
2018-08-22T07:44:31.240Z,20.19
2018-08-22T07:45:37.838Z,20.25
2018-08-22T07:46:44.202Z,20.43
2018-08-22T07:47:50.637Z,20.68
2018-08-22T07:48:57.433Z,20.86
2018-08-22T07:50:03.484Z,20.90
2018-08-22T07:51:09.918Z,20.94
2018-08-22T07:52:16.230Z,20.93
2018-08-22T07:53:23.475Z,20.91
2018-08-22T07:54:29.751Z,20.98
2018-08-22T07:55:39.069Z,20.98
2018-08-22T07:56:45.360Z,21.09
2018-08-22T07:57:51.698Z,21.13
2018-08-22T07:58:57.319Z,21.34
2018-08-22T08:00:03.655Z,21.37
2018-08-22T08:01:10.661Z,21.61
2018-08-22T08:02:16.924Z,21.78
2018-08-22T08:03:23.799Z,21.57
2018-08-22T08:04:30.048Z,21.43
2018-08-22T08:05:36.383Z,21.42
2018-08-22T08:06:43.008Z,21.50
2018-08-22T08:07:49.497Z,21.40
2018-08-22T08:08:55.840Z,21.38
2018-08-22T08:10:02.136Z,21.47
2018-08-22T08:11:17.706Z,21.69
2018-08-22T08:12:23.690Z,21.79
2018-08-22T08:13:30.032Z,21.90
2018-08-22T08:14:36.284Z,21.85
2018-08-22T08:15:42.690Z,21.76
2018-08-22T08:16:49.053Z,21.84
2018-08-22T08:17:55.305Z,22.04
2018-08-22T08:19:01.655Z,22.16
2018-08-22T08:20:07.654Z,22.26
2018-08-22T08:21:13.964Z,22.39
2018-08-22T08:22:20.267Z,22.40
2018-08-22T08:23:31.592Z,22.39
2018-08-22T08:24:37.917Z,22.53
2018-08-22T08:25:44.212Z,22.53
2018-08-22T08:26:50.556Z,22.85
2018-08-22T08:27:57.181Z,23.12
2018-08-22T08:29:03.846Z,23.26
2018-08-22T08:30:10.099Z,23.15
2018-08-22T08:31:16.387Z,22.94
2018-08-22T08:32:22.692Z,22.58
2018-08-22T08:33:29.142Z,22.51
2018-08-22T08:34:35.530Z,22.65
2018-08-22T08:35:41.889Z,22.78
2018-08-22T08:36:51.525Z,23.04
2018-08-22T08:37:57.832Z,23.38
2018-08-22T08:39:03.611Z,23.65
2018-08-22T08:40:09.842Z,23.68
2018-08-22T08:41:16.172Z,23.42
2018-08-22T08:42:22.505Z,22.87
2018-08-22T08:43:29.175Z,22.95
2018-08-22T08:44:35.613Z,23.03
2018-08-22T08:45:41.919Z,23.12
2018-08-22T08:46:48.248Z,23.22
2018-08-22T08:47:54.351Z,23.26
2018-08-22T08:49:14.215Z,23.52
2018-08-22T08:50:20.472Z,23.67
2018-08-22T08:51:26.791Z,23.30
2018-08-22T08:52:33.362Z,23.26
2018-08-22T08:53:39.948Z,23.47
2018-08-22T08:54:46.331Z,23.65
2018-08-22T08:55:58.256Z,23.86
2018-08-22T08:57:05.352Z,24.01
2018-08-22T08:58:11.352Z,24.20
2018-08-22T08:59:17.772Z,24.08
2018-08-22T09:00:26.239Z,24.11
2018-08-22T09:01:33.232Z,24.21
2018-08-22T09:02:40.124Z,24.37
2018-08-22T09:03:46.432Z,24.36
2018-08-22T09:04:52.855Z,24.21
2018-08-22T09:05:59.055Z,24.13
2018-08-22T09:07:05.399Z,24.10
2018-08-22T09:08:11.733Z,24.35
2018-08-22T09:09:18.356Z,24.54
2018-08-22T09:10:24.678Z,24.75
2018-08-22T09:11:30.967Z,24.94
2018-08-22T09:12:36.291Z,25.00
2018-08-22T09:13:42.333Z,24.80
2018-08-22T09:14:48.792Z,24.61
2018-08-22T09:15:55.056Z,24.67
2018-08-22T09:17:01.502Z,24.59
2018-08-22T09:18:08.525Z,24.73
2018-08-22T09:19:14.951Z,24.84
2018-08-22T09:20:21.228Z,25.02
2018-08-22T09:21:27.600Z,25.13
2018-08-22T09:22:34.059Z,25.34
2018-08-22T09:23:40.403Z,25.14
2018-08-22T09:24:46.720Z,25.29
2018-08-22T09:25:53.005Z,25.38
2018-08-22T09:26:59.545Z,25.07
2018-08-22T09:28:05.866Z,25.33
2018-08-22T09:29:12.490Z,25.38
2018-08-22T09:30:18.788Z,25.48
2018-08-22T09:31:25.104Z,25.53
2018-08-22T09:32:31.383Z,25.54
2018-08-22T09:33:37.743Z,25.26
2018-08-22T09:34:44.377Z,25.03
2018-08-22T09:35:50.984Z,24.89
2018-08-22T09:36:57.244Z,25.02
2018-08-22T09:38:03.544Z,25.08
2018-08-22T09:39:09.760Z,25.48
2018-08-22T09:40:16.007Z,25.56
2018-08-22T09:41:22.417Z,25.37
2018-08-22T09:42:28.692Z,25.39
2018-08-22T09:43:35.048Z,25.57
2018-08-22T09:44:41.367Z,25.41
2018-08-22T09:45:52.867Z,24.81
2018-08-22T09:46:59.160Z,24.86
2018-08-22T09:48:06.477Z,24.91
2018-08-22T09:49:12.458Z,24.90
2018-08-22T09:50:19.051Z,25.02
2018-08-22T09:51:25.380Z,25.18
2018-08-22T09:52:32.216Z,25.54
2018-08-22T09:53:38.479Z,25.50
2018-08-22T09:54:43.835Z,25.44
2018-08-22T09:55:50.084Z,25.65
2018-08-22T09:56:56.448Z,25.73
2018-08-22T09:58:02.885Z,25.93
2018-08-22T09:59:09.092Z,25.99
2018-08-22T10:00:15.444Z,26.16
2018-08-22T10:01:21.395Z,26.31
2018-08-22T10:02:27.416Z,26.32
2018-08-22T10:03:32.957Z,25.85
2018-08-22T10:04:39.075Z,25.80
2018-08-22T10:05:45.540Z,25.87
2018-08-22T10:06:51.838Z,25.88
2018-08-22T10:07:57.847Z,26.01
2018-08-22T10:09:03.595Z,26.10
2018-08-22T10:10:09.949Z,25.83
2018-08-22T10:11:16.203Z,25.80
2018-08-22T10:12:22.493Z,26.20
2018-08-22T10:13:28.750Z,26.23
2018-08-22T10:14:35.051Z,26.23
2018-08-22T10:15:41.346Z,26.15
2018-08-22T10:16:47.645Z,26.23
2018-08-22T10:17:53.961Z,26.57
2018-08-22T10:19:00.326Z,26.77
2018-08-22T10:20:06.304Z,26.54
2018-08-22T10:21:12.584Z,26.52
2018-08-22T10:22:19.039Z,26.62
2018-08-22T10:23:25.051Z,26.15
2018-08-22T10:24:31.072Z,26.20
2018-08-22T10:25:37.328Z,26.16
2018-08-22T10:26:43.104Z,26.25
2018-08-22T10:27:49.258Z,26.21
2018-08-22T10:28:57.546Z,26.44
2018-08-22T10:30:03.858Z,26.38
2018-08-22T10:31:09.819Z,26.29
2018-08-22T10:32:15.829Z,26.29
2018-08-22T10:33:21.826Z,26.44
2018-08-22T10:34:27.874Z,26.52
2018-08-22T10:35:34.160Z,26.39
2018-08-22T10:36:40.663Z,26.57
2018-08-22T10:37:47.146Z,26.61
2018-08-22T10:38:53.363Z,26.85
2018-08-22T10:40:02.643Z,26.98
2018-08-22T10:41:08.584Z,27.10
2018-08-22T10:42:14.589Z,27.14
2018-08-22T10:43:20.619Z,26.85
2018-08-22T10:44:27.027Z,26.99
2018-08-22T10:45:33.142Z,26.64
2018-08-22T10:46:39.400Z,26.57
2018-08-22T10:47:45.419Z,26.69
2018-08-22T10:48:51.333Z,26.87
2018-08-22T10:49:57.336Z,26.79
2018-08-22T10:51:03.385Z,26.82
2018-08-22T10:52:09.360Z,26.94
2018-08-22T10:53:16.081Z,26.66
2018-08-22T10:54:22.181Z,26.73
2018-08-22T10:55:28.217Z,26.25
2018-08-22T10:56:34.292Z,26.30
2018-08-22T10:57:40.330Z,26.54
2018-08-22T10:58:46.301Z,26.93
2018-08-22T10:59:52.319Z,27.06
2018-08-22T11:00:58.457Z,27.09
2018-08-22T11:02:04.459Z,26.92
2018-08-22T11:03:10.776Z,27.03
2018-08-22T11:04:16.772Z,27.13
2018-08-22T11:05:23.320Z,26.83
2018-08-22T11:06:28.913Z,26.79
2018-08-22T11:07:35.148Z,26.78
2018-08-22T11:08:41.152Z,27.02
2018-08-22T11:09:47.669Z,27.18
2018-08-22T11:10:53.720Z,27.46
2018-08-22T11:11:59.729Z,27.63
2018-08-22T11:13:05.341Z,27.48
2018-08-22T11:14:11.428Z,27.30
2018-08-22T11:15:17.226Z,27.24
2018-08-22T11:16:22.908Z,27.27
2018-08-22T11:17:28.915Z,27.24
2018-08-22T11:18:34.910Z,27.22
2018-08-22T11:19:40.895Z,27.07
2018-08-22T11:20:45.483Z,27.19
2018-08-22T11:22:03.808Z,27.40
2018-08-22T11:23:26.692Z,27.64
2018-08-22T11:24:49.725Z,27.55
2018-08-22T11:26:12.572Z,27.64
2018-08-22T11:27:35.499Z,27.35
2018-08-22T11:28:58.198Z,27.39
2018-08-22T11:30:20.867Z,27.22
2018-08-22T11:31:44.051Z,27.26
2018-08-22T11:33:07.407Z,27.27
2018-08-22T11:34:30.422Z,27.67
2018-08-22T11:35:41.138Z,27.94
2018-08-22T11:36:46.008Z,27.62
2018-08-22T11:37:51.584Z,27.83
2018-08-22T11:38:57.591Z,27.71
2018-08-22T11:40:03.730Z,27.73
2018-08-22T11:41:09.719Z,28.12
2018-08-22T11:42:15.914Z,28.38
2018-08-22T11:43:22.013Z,28.16
2018-08-22T11:44:28.028Z,28.49
2018-08-22T11:45:34.055Z,28.67
2018-08-22T11:46:40.060Z,28.63
2018-08-22T11:47:46.264Z,28.77
2018-08-22T11:48:52.832Z,28.82
2018-08-22T11:49:58.866Z,28.25
2018-08-22T11:51:04.905Z,27.91
2018-08-22T11:52:10.881Z,27.83
2018-08-22T11:53:17.567Z,27.95
2018-08-22T11:54:23.335Z,28.28
2018-08-22T11:55:29.318Z,28.45
2018-08-22T11:56:35.320Z,28.46
2018-08-22T11:57:41.301Z,28.56
2018-08-22T11:58:47.327Z,28.24
2018-08-22T11:59:53.313Z,28.24
2018-08-22T12:00:59.382Z,28.21
2018-08-22T12:02:05.020Z,28.12
2018-08-22T12:03:10.831Z,28.16
2018-08-22T12:04:16.760Z,28.28
2018-08-22T12:05:23.388Z,28.52
2018-08-22T12:06:29.377Z,28.76
2018-08-22T12:07:35.357Z,28.71
2018-08-22T12:08:41.372Z,28.30
2018-08-22T12:09:47.366Z,28.12
2018-08-22T12:10:53.359Z,28.45
2018-08-22T12:11:59.398Z,28.70
2018-08-22T12:13:11.628Z,28.65
2018-08-22T12:14:22.580Z,28.40
2018-08-22T12:15:28.687Z,28.48
2018-08-22T12:16:35.815Z,28.73
2018-08-22T12:17:41.779Z,28.88
2018-08-22T12:18:53.005Z,28.76
2018-08-22T12:20:00.788Z,28.57
2018-08-22T12:21:06.777Z,28.29
2018-08-22T12:22:12.770Z,28.49
2018-08-22T12:23:18.857Z,28.55
2018-08-22T12:24:25.185Z,28.72
2018-08-22T12:25:31.005Z,28.81
2018-08-22T12:26:37.067Z,29.09
2018-08-22T12:27:43.287Z,29.26
2018-08-22T12:28:49.303Z,29.25
2018-08-22T12:29:55.198Z,29.51
2018-08-22T12:31:01.186Z,29.72
2018-08-22T12:32:07.428Z,29.52
2018-08-22T12:33:13.667Z,29.52
2018-08-22T12:34:20.060Z,29.19
2018-08-22T12:35:26.176Z,29.12
2018-08-22T12:36:32.180Z,28.96
2018-08-22T12:37:38.227Z,29.00
2018-08-22T12:38:44.064Z,29.01
2018-08-22T12:39:50.781Z,29.00
2018-08-22T12:40:56.780Z,29.26
2018-08-22T12:42:02.828Z,29.17
2018-08-22T12:43:08.833Z,29.30
2018-08-22T12:44:14.880Z,29.62
2018-08-22T12:45:20.822Z,29.59
2018-08-22T12:46:26.881Z,29.26
2018-08-22T12:47:32.847Z,29.22
2018-08-22T12:48:38.825Z,29.15
2018-08-22T12:49:44.828Z,29.00
2018-08-22T12:50:50.872Z,28.95
2018-08-22T12:51:56.868Z,29.02
2018-08-22T12:53:02.877Z,29.08
2018-08-22T12:54:08.851Z,29.20
2018-08-22T12:55:15.591Z,29.59
2018-08-22T12:56:21.800Z,29.34
2018-08-22T12:57:27.930Z,29.79
2018-08-22T12:58:33.926Z,30.07
2018-08-22T12:59:39.907Z,30.07
2018-08-22T13:00:45.932Z,30.02
2018-08-22T13:01:57.484Z,29.90
2018-08-22T13:03:09.686Z,30.16
2018-08-22T13:04:15.705Z,29.66
2018-08-22T13:05:21.528Z,29.69
2018-08-22T13:06:27.485Z,29.72
2018-08-22T13:07:33.641Z,29.55
2018-08-22T13:08:39.596Z,29.47
2018-08-22T13:09:46.645Z,29.89
2018-08-22T13:10:52.640Z,30.19
2018-08-22T13:11:58.700Z,29.81
2018-08-22T13:13:04.419Z,29.54
2018-08-22T13:14:11.170Z,29.72
2018-08-22T13:15:17.188Z,29.58
2018-08-22T13:16:23.178Z,29.57
2018-08-22T13:17:29.317Z,30.01
2018-08-22T13:18:35.383Z,30.37
2018-08-22T13:19:41.566Z,30.32
2018-08-22T13:20:47.514Z,29.97
2018-08-22T13:21:53.525Z,30.57
2018-08-22T13:23:05.307Z,30.35
2018-08-22T13:24:11.440Z,30.51
2018-08-22T13:25:17.571Z,30.72
2018-08-22T13:26:23.607Z,30.99
2018-08-22T13:27:29.383Z,31.21
2018-08-22T13:28:35.395Z,30.85
2018-08-22T13:29:41.389Z,30.74
2018-08-22T13:30:47.420Z,30.75
2018-08-22T13:31:53.514Z,30.48
2018-08-22T13:32:59.591Z,30.71
2018-08-22T13:34:05.184Z,30.62
2018-08-22T13:35:11.489Z,30.30
2018-08-22T13:36:17.805Z,30.10
2018-08-22T13:37:24.162Z,30.63
2018-08-22T13:38:30.238Z,31.01
2018-08-22T13:39:36.354Z,31.16
2018-08-22T13:40:42.483Z,31.22
2018-08-22T13:41:48.457Z,31.28
2018-08-22T13:42:54.492Z,31.27
2018-08-22T13:44:00.442Z,31.25
2018-08-22T13:45:05.724Z,31.07
2018-08-22T13:46:11.765Z,31.15
2018-08-22T13:47:17.776Z,31.06
2018-08-22T13:48:23.824Z,31.08
2018-08-22T13:49:29.792Z,31.17
2018-08-22T13:50:35.777Z,31.47
2018-08-22T13:51:41.866Z,31.40
2018-08-22T13:52:49.082Z,31.41
2018-08-22T13:53:55.223Z,30.78
2018-08-22T13:55:01.256Z,30.55
2018-08-22T13:56:13.532Z,30.35
2018-08-22T13:57:22.577Z,30.71
2018-08-22T13:58:28.596Z,31.01
2018-08-22T13:59:38.392Z,31.46
2018-08-22T14:00:44.319Z,31.64
2018-08-22T14:01:50.355Z,31.58
2018-08-22T14:02:56.287Z,31.57
2018-08-22T14:04:02.269Z,31.64
2018-08-22T14:05:08.449Z,31.73
2018-08-22T14:06:15.091Z,31.52
2018-08-22T14:07:21.115Z,30.67
2018-08-22T14:08:27.155Z,30.93
2018-08-22T14:09:33.117Z,31.37
2018-08-22T14:10:39.128Z,30.91
2018-08-22T14:11:45.393Z,31.25
2018-08-22T14:12:51.779Z,31.52
2018-08-22T14:14:02.750Z,31.50
2018-08-22T14:15:10.052Z,30.93
2018-08-22T14:16:16.114Z,30.78
2018-08-22T14:17:22.713Z,31.36
2018-08-22T14:18:28.776Z,31.47
2018-08-22T14:19:34.735Z,31.05
2018-08-22T14:20:40.748Z,30.68
2018-08-22T14:21:46.764Z,30.78
2018-08-22T14:22:52.789Z,31.18
2018-08-22T14:23:59.583Z,31.26
2018-08-22T14:25:04.894Z,31.53
2018-08-22T14:26:11.769Z,31.33
2018-08-22T14:27:17.823Z,30.63